createdAt,value
2023-05-15T06:13:09.354Z,10.90
2023-05-15T06:15:37.659Z,11.43
2023-05-15T06:18:06.547Z,11.25
2023-05-15T06:20:34.777Z,11.00
2023-05-15T06:23:02.836Z,11.35
2023-05-15T06:25:32.306Z,10.75
2023-05-15T06:28:00.177Z,9.98
2023-05-15T06:30:29.622Z,9.77
2023-05-15T06:32:57.765Z,9.10
2023-05-15T06:35:26.084Z,10.57
2023-05-15T06:37:55.412Z,10.05
2023-05-15T06:40:24.729Z,9.90
2023-05-15T06:42:52.910Z,10.07
2023-05-15T06:45:21.606Z,9.25
2023-05-15T06:47:51.123Z,9.60
2023-05-15T06:50:19.110Z,9.13
2023-05-15T06:52:47.018Z,8.85
2023-05-15T06:55:15.640Z,9.20
2023-05-15T06:57:43.860Z,8.45
2023-05-15T07:00:13.094Z,8.55
2023-05-15T07:05:50.045Z,8.50
2023-05-15T07:08:18.063Z,7.93
2023-05-15T07:10:46.232Z,7.15
2023-05-15T07:13:14.276Z,7.53
2023-05-15T07:15:42.633Z,7.43
2023-05-15T07:18:10.900Z,7.70
2023-05-15T07:20:39.297Z,6.95
2023-05-15T07:23:09.140Z,7.57
2023-05-15T07:25:37.344Z,6.60
2023-05-15T07:28:05.776Z,6.80
2023-05-15T07:30:33.932Z,7.03
2023-05-15T07:33:02.026Z,6.68
2023-05-15T07:35:30.743Z,6.82
2023-05-15T07:37:59.416Z,6.63
2023-05-15T07:40:29.234Z,6.82
2023-05-15T07:42:58.418Z,5.88
2023-05-15T07:45:26.966Z,6.45
2023-05-15T07:47:56.351Z,6.30
2023-05-15T07:50:24.612Z,5.82
2023-05-15T07:52:57.038Z,6.10
2023-05-15T07:55:25.270Z,5.90
2023-05-15T07:57:55.291Z,6.40
2023-05-15T08:00:23.523Z,5.80
2023-05-15T08:02:51.930Z,5.18
2023-05-15T08:08:41.997Z,5.40
2023-05-15T08:14:13.115Z,5.82
2023-05-15T08:19:11.170Z,4.88
2023-05-15T08:21:41.382Z,4.78
2023-05-15T08:27:36.884Z,4.82
2023-05-15T08:30:10.465Z,3.70
2023-05-15T08:32:39.020Z,4.32
2023-05-15T08:35:24.243Z,4.65
2023-05-15T08:37:54.208Z,4.53
2023-05-15T08:40:38.542Z,4.88
2023-05-15T08:43:15.220Z,4.13
2023-05-15T08:45:45.748Z,3.60
2023-05-15T08:48:19.570Z,3.92
2023-05-15T08:51:08.620Z,3.95
2023-05-15T08:53:37.474Z,4.55
2023-05-15T08:59:32.851Z,4.93
2023-05-15T09:02:03.038Z,5.13
2023-05-15T09:04:34.610Z,4.68
2023-05-15T09:10:04.884Z,4.50
2023-05-15T09:12:48.828Z,4.80
2023-05-15T09:15:23.073Z,4.43
2023-05-15T09:17:54.149Z,3.72
2023-05-15T09:20:32.775Z,4.32
2023-05-15T09:23:10.530Z,3.70
2023-05-15T09:25:42.948Z,4.55
2023-05-15T09:28:26.227Z,3.83
2023-05-15T09:30:59.851Z,4.43
2023-05-15T09:33:34.329Z,3.67
2023-05-15T09:36:02.711Z,4.18
2023-05-15T09:38:33.293Z,4.07
2023-05-15T09:41:06.031Z,3.90
2023-05-15T09:43:36.360Z,3.83
2023-05-15T09:46:05.355Z,3.85
2023-05-15T09:48:36.215Z,3.40
2023-05-15T09:51:08.070Z,3.75
2023-05-15T09:53:38.787Z,3.58
2023-05-15T09:56:06.921Z,3.30
2023-05-15T09:58:36.543Z,4.13
2023-05-15T10:01:04.620Z,3.95
2023-05-15T10:03:48.754Z,4.10
2023-05-15T10:06:21.305Z,3.33
2023-05-15T10:08:53.440Z,3.60
2023-05-15T10:11:22.668Z,3.20
2023-05-15T10:13:50.825Z,3.83
2023-05-15T10:16:22.674Z,3.95
2023-05-15T10:18:53.103Z,3.70
2023-05-15T10:21:23.989Z,3.78
2023-05-15T10:23:53.188Z,3.70
2023-05-15T10:26:25.600Z,4.22
2023-05-15T10:28:55.141Z,3.95
2023-05-15T10:31:24.593Z,3.85
2023-05-15T10:33:53.518Z,3.80
2023-05-15T10:36:24.763Z,3.97
2023-05-15T10:38:53.709Z,4.38
2023-05-15T10:41:22.537Z,7.75
2023-05-15T10:43:50.945Z,5.40
2023-05-15T10:46:19.077Z,11.20
2023-05-15T10:48:47.082Z,4.57
2023-05-15T10:51:17.081Z,5.28
2023-05-15T10:53:47.571Z,4.10
2023-05-15T10:56:20.450Z,4.03
2023-05-15T10:58:55.544Z,3.90
2023-05-15T11:01:32.502Z,4.53
2023-05-15T11:04:13.614Z,4.22
2023-05-15T11:06:45.228Z,3.95
2023-05-15T11:09:48.979Z,4.28
2023-05-15T11:15:35.622Z,4.30
2023-05-15T11:18:06.411Z,4.38
2023-05-15T11:20:46.510Z,3.88
2023-05-15T11:23:41.304Z,4.63
2023-05-15T11:26:43.758Z,4.82
2023-05-15T11:29:26.673Z,4.55
2023-05-15T11:31:54.743Z,4.93
2023-05-15T11:34:32.687Z,4.13
2023-05-15T11:37:01.106Z,4.13
2023-05-15T11:39:29.712Z,4.07
2023-05-15T11:42:01.113Z,3.45
2023-05-15T11:44:32.114Z,3.65
2023-05-15T11:47:01.015Z,3.63
2023-05-15T11:49:44.054Z,3.55
2023-05-15T11:52:13.532Z,3.70
2023-05-15T11:54:41.837Z,3.45
2023-05-15T11:57:09.908Z,3.83
2023-05-15T11:59:42.233Z,3.50
2023-05-15T12:02:15.865Z,2.85
2023-05-15T12:04:43.736Z,2.58
2023-05-15T12:07:13.386Z,2.35
2023-05-15T12:09:42.956Z,2.65
2023-05-15T12:12:20.756Z,2.30
2023-05-15T12:14:50.040Z,2.70
2023-05-15T12:17:19.729Z,2.65
2023-05-15T12:19:48.039Z,3.00
2023-05-15T12:22:16.129Z,3.47
2023-05-15T12:24:44.117Z,2.55
2023-05-15T12:27:12.512Z,2.30
2023-05-15T12:29:41.111Z,2.53
2023-05-15T12:32:11.504Z,2.22
2023-05-15T12:34:39.937Z,1.80
2023-05-15T12:37:12.730Z,2.22
2023-05-15T12:39:51.920Z,1.40
2023-05-15T12:42:19.974Z,1.60
2023-05-15T12:44:51.192Z,1.77
2023-05-15T12:47:25.569Z,1.40
2023-05-15T12:49:58.085Z,1.60
2023-05-15T12:52:29.762Z,1.40
2023-05-15T12:55:01.305Z,1.55
2023-05-15T12:57:29.148Z,1.50
2023-05-15T12:59:57.099Z,2.15
2023-05-15T13:09:05.765Z,3.85
2023-05-15T13:11:34.899Z,2.97
2023-05-15T13:14:09.657Z,3.53
2023-05-15T13:16:39.031Z,3.40
2023-05-15T13:19:10.575Z,2.95
2023-05-15T13:21:39.825Z,3.30
2023-05-15T13:24:10.885Z,3.55
2023-05-15T13:26:39.656Z,3.15
2023-05-15T13:29:07.732Z,3.60
2023-05-15T13:31:35.894Z,2.88
2023-05-15T13:34:06.692Z,3.78
2023-05-15T13:36:34.998Z,3.60
2023-05-15T13:39:04.199Z,3.35
2023-05-15T13:41:33.479Z,3.40
2023-05-15T13:44:01.484Z,3.25
2023-05-15T13:46:29.619Z,2.85
2023-05-15T13:48:57.970Z,2.78
2023-05-15T13:51:25.994Z,2.80
2023-05-15T13:53:53.897Z,3.30
2023-05-15T13:56:22.506Z,3.15
2023-05-15T13:58:51.978Z,2.90
2023-05-15T14:01:20.438Z,3.05
2023-05-15T14:03:50.195Z,3.40
2023-05-15T14:06:18.146Z,3.10
2023-05-15T14:08:45.960Z,3.28
2023-05-15T14:11:13.842Z,2.95
2023-05-15T14:13:42.342Z,2.58
2023-05-15T14:16:11.550Z,2.80
2023-05-15T14:18:39.575Z,2.90
2023-05-15T14:21:07.722Z,2.40
2023-05-15T14:23:36.043Z,2.92
2023-05-15T14:26:03.942Z,2.80
2023-05-15T14:28:31.839Z,2.20
2023-05-15T14:31:16.807Z,2.40
2023-05-15T14:33:46.370Z,2.70
2023-05-15T14:36:14.266Z,2.60
2023-05-15T14:38:45.583Z,2.65
2023-05-15T14:41:13.575Z,2.58
2023-05-15T14:43:41.712Z,2.42
2023-05-15T14:46:11.370Z,2.15
2023-05-15T14:48:39.554Z,2.22
2023-05-15T14:51:09.448Z,2.15
2023-05-15T14:53:37.491Z,2.45
2023-05-15T14:56:06.180Z,2.40
2023-05-15T14:58:34.095Z,2.42
2023-05-15T15:01:02.372Z,2.08
2023-05-15T15:03:34.041Z,2.03
2023-05-15T15:06:02.361Z,2.40
2023-05-15T15:08:31.755Z,2.40
2023-05-15T15:10:59.695Z,2.40
2023-05-15T15:13:29.486Z,2.03
2023-05-15T15:15:59.457Z,2.35
2023-05-15T15:18:27.758Z,2.30
2023-05-15T15:20:55.626Z,2.30
2023-05-15T15:23:23.849Z,2.20
2023-05-15T15:25:52.988Z,1.98
2023-05-15T15:28:20.847Z,2.70
2023-05-15T15:30:48.739Z,2.58
2023-05-15T15:33:16.545Z,2.50
2023-05-15T15:35:44.380Z,2.70
2023-05-15T15:38:13.300Z,2.75
2023-05-15T15:40:41.905Z,2.80
2023-05-15T15:43:11.299Z,2.92
2023-05-15T15:45:39.181Z,2.83
